sensor_id;sensor_type;location;lat;lon;timestamp;pressure;altitude;pressure_sealevel;temperature;humidity
40013;BME280;37387;42.672;23.334;2023-05-23T00:01:35;942.9;;;11.7;100.0
40013;BME280;37387;42.672;23.334;2023-05-23T00:02:36;942.9;;;11.6;100.0
40013;BME280;37387;42.672;23.334;2023-05-23T00:05:36;942.9;;;11.5;100.0
40013;BME280;37387;42.672;23.334;2023-05-23T00:07:36;942.8;;;11.4;100.0
40013;BME280;37387;42.672;23.334;2023-05-23T00:13:36;942.9;;;11.3;100.0
40013;BME280;37387;42.672;23.334;2023-05-23T00:14:36;942.8;;;11.2;100.0
40013;BME280;37387;42.672;23.334;2023-05-23T00:18:36;942.8;;;11.3;100.0
40013;BME280;37387;42.672;23.334;2023-05-23T00:20:35;942.8;;;11.2;100.0
40013;BME280;37387;42.672;23.334;2023-05-23T00:28:36;942.8;;;11.1;100.0
40013;BME280;37387;42.672;23.334;2023-05-23T00:42:36;942.8;;;11.2;100.0
40013;BME280;37387;42.672;23.334;2023-05-23T00:47:35;942.7;;;11.1;100.0
40013;BME280;37387;42.672;23.334;2023-05-23T00:49:36;942.7;;;11.2;100.0
40013;BME280;37387;42.672;23.334;2023-05-23T00:52:36;942.7;;;11.3;100.0
40013;BME280;37387;42.672;23.334;2023-05-23T01:00:36;942.8;;;11.2;100.0
40013;BME280;37387;42.672;23.334;2023-05-23T01:03:35;942.7;;;11.3;100.0
40013;BME280;37387;42.672;23.334;2023-05-23T01:07:36;942.8;;;11.2;100.0
40013;BME280;37387;42.672;23.334;2023-05-23T01:10:36;942.8;;;11.1;100.0
40013;BME280;37387;42.672;23.334;2023-05-23T01:14:37;942.8;;;11.0;100.0
40013;BME280;37387;42.672;23.334;2023-05-23T01:21:36;942.8;;;11.1;100.0
40013;BME280;37387;42.672;23.334;2023-05-23T01:28:36;942.8;;;11.2;100.0
40013;BME280;37387;42.672;23.334;2023-05-23T01:34:36;942.8;;;11.3;100.0
40013;BME280;37387;42.672;23.334;2023-05-23T01:35:36;942.8;;;11.4;100.0
40013;BME280;37387;42.672;23.334;2023-05-23T01:37:35;942.8;;;11.5;100.0
40013;BME280;37387;42.672;23.334;2023-05-23T01:39:36;942.8;;;11.6;100.0
40013;BME280;37387;42.672;23.334;2023-05-23T01:40:36;942.8;;;11.5;100.0
40013;BME280;37387;42.672;23.334;2023-05-23T01:41:36;942.8;;;11.6;100.0
40013;BME280;37387;42.672;23.334;2023-05-23T01:44:36;942.8;;;11.7;100.0
40013;BME280;37387;42.672;23.334;2023-05-23T01:47:36;942.8;;;11.8;100.0
40013;BME280;37387;42.672;23.334;2023-05-23T01:49:36;942.7;;;11.9;100.0
40013;BME280;37387;42.672;23.334;2023-05-23T01:59:35;942.6;;;11.8;100.0
40013;BME280;37387;42.672;23.334;2023-05-23T02:00:36;942.6;;;11.7;100.0
40013;BME280;37387;42.672;23.334;2023-05-23T02:01:36;942.6;;;11.6;100.0
40013;BME280;37387;42.672;23.334;2023-05-23T02:02:36;942.6;;;11.7;100.0
40013;BME280;37387;42.672;23.334;2023-05-23T02:03:36;942.6;;;11.6;100.0
40013;BME280;37387;42.672;23.334;2023-05-23T02:08:35;942.7;;;11.5;100.0
40013;BME280;37387;42.672;23.334;2023-05-23T02:09:36;942.7;;;11.4;100.0
40013;BME280;37387;42.672;23.334;2023-05-23T02:10:36;942.7;;;11.5;100.0
40013;BME280;37387;42.672;23.334;2023-05-23T02:11:35;942.7;;;11.6;100.0
40013;BME280;37387;42.672;23.334;2023-05-23T02:12:35;942.7;;;11.7;100.0
40013;BME280;37387;42.672;23.334;2023-05-23T02:13:36;942.7;;;11.6;100.0
40013;BME280;37387;42.672;23.334;2023-05-23T02:18:35;942.7;;;11.4;100.0
40013;BME280;37387;42.672;23.334;2023-05-23T02:19:35;942.7;;;11.5;100.0
40013;BME280;37387;42.672;23.334;2023-05-23T02:29:36;942.7;;;11.4;100.0
40013;BME280;37387;42.672;23.334;2023-05-23T02:35:35;942.7;;;11.3;100.0
40013;BME280;37387;42.672;23.334;2023-05-23T02:40:35;942.7;;;11.1;100.0
40013;BME280;37387;42.672;23.334;2023-05-23T02:44:35;942.6;;;10.9;100.0
40013;BME280;37387;42.672;23.334;2023-05-23T02:46:35;942.6;;;11.0;100.0
40013;BME280;37387;42.672;23.334;2023-05-23T02:47:35;942.6;;;10.8;100.0
40013;BME280;37387;42.672;23.334;2023-05-23T02:49:35;942.6;;;10.9;100.0
40013;BME280;37387;42.672;23.334;2023-05-23T02:50:36;942.6;;;10.8;100.0
40013;BME280;37387;42.672;23.334;2023-05-23T02:52:36;942.5;;;10.6;100.0
40013;BME280;37387;42.672;23.334;2023-05-23T02:53:35;942.5;;;10.7;100.0
40013;BME280;37387;42.672;23.334;2023-05-23T02:54:35;942.5;;;10.8;100.0
40013;BME280;37387;42.672;23.334;2023-05-23T02:55:35;942.5;;;10.7;100.0
40013;BME280;37387;42.672;23.334;2023-05-23T02:58:36;942.6;;;10.6;100.0
40013;BME280;37387;42.672;23.334;2023-05-23T03:01:35;942.6;;;10.7;100.0
40013;BME280;37387;42.672;23.334;2023-05-23T03:02:36;942.6;;;10.6;100.0
40013;BME280;37387;42.672;23.334;2023-05-23T03:04:35;942.6;;;10.7;100.0
40013;BME280;37387;42.672;23.334;2023-05-23T03:05:35;942.6;;;10.8;100.0
40013;BME280;37387;42.672;23.334;2023-05-23T03:06:36;942.6;;;10.9;100.0
40013;BME280;37387;42.672;23.334;2023-05-23T03:08:35;942.6;;;11.0;100.0
40013;BME280;37387;42.672;23.334;2023-05-23T03:09:35;942.6;;;11.1;100.0
40013;BME280;37387;42.672;23.334;2023-05-23T03:11:35;942.6;;;11.2;100.0
40013;BME280;37387;42.672;23.334;2023-05-23T03:13:35;942.6;;;11.3;100.0
40013;BME280;37387;42.672;23.334;2023-05-23T03:16:35;942.5;;;11.4;100.0
40013;BME280;37387;42.672;23.334;2023-05-23T03:18:35;942.5;;;11.5;100.0
40013;BME280;37387;42.672;23.334;2023-05-23T03:22:36;942.6;;;11.7;100.0
40013;BME280;37387;42.672;23.334;2023-05-23T03:23:36;942.6;;;11.6;100.0
40013;BME280;37387;42.672;23.334;2023-05-23T03:24:35;942.6;;;11.5;100.0
40013;BME280;37387;42.672;23.334;2023-05-23T03:25:36;942.6;;;11.4;100.0
40013;BME280;37387;42.672;23.334;2023-05-23T03:26:35;942.7;;;11.5;100.0
40013;BME280;37387;42.672;23.334;2023-05-23T03:27:35;942.7;;;11.6;100.0
40013;BME280;37387;42.672;23.334;2023-05-23T03:28:35;942.6;;;11.7;100.0
40013;BME280;37387;42.672;23.334;2023-05-23T03:30:36;942.7;;;11.8;100.0
40013;BME280;37387;42.672;23.334;2023-05-23T03:34:36;942.7;;;11.7;100.0
40013;BME280;37387;42.672;23.334;2023-05-23T03:35:35;942.7;;;11.6;100.0
40013;BME280;37387;42.672;23.334;2023-05-23T03:36:35;942.8;;;11.5;100.0
40013;BME280;37387;42.672;23.334;2023-05-23T03:40:35;942.8;;;11.6;100.0
40013;BME280;37387;42.672;23.334;2023-05-23T03:41:36;942.8;;;11.5;100.0
40013;BME280;37387;42.672;23.334;2023-05-23T03:42:37;942.8;;;11.6;100.0
40013;BME280;37387;42.672;23.334;2023-05-23T03:45:35;942.8;;;11.7;100.0
40013;BME280;37387;42.672;23.334;2023-05-23T03:46:35;942.8;;;11.8;100.0
40013;BME280;37387;42.672;23.334;2023-05-23T03:48:35;942.8;;;11.9;100.0
40013;BME280;37387;42.672;23.334;2023-05-23T03:52:35;942.8;;;12.0;100.0
40013;BME280;37387;42.672;23.334;2023-05-23T03:53:35;942.8;;;12.1;100.0
40013;BME280;37387;42.672;23.334;2023-05-23T03:54:36;942.9;;;12.2;100.0
40013;BME280;37387;42.672;23.334;2023-05-23T03:55:36;942.9;;;12.4;100.0
40013;BME280;37387;42.672;23.334;2023-05-23T03:56:35;942.9;;;12.3;100.0
40013;BME280;37387;42.672;23.334;2023-05-23T03:58:35;942.9;;;12.1;100.0
40013;BME280;37387;42.672;23.334;2023-05-23T04:00:35;942.9;;;12.2;100.0
40013;BME280;37387;42.672;23.334;2023-05-23T04:01:36;942.9;;;12.4;100.0
40013;BME280;37387;42.672;23.334;2023-05-23T04:02:36;942.9;;;12.5;100.0
40013;BME280;37387;42.672;23.334;2023-05-23T04:03:36;942.9;;;12.6;100.0
40013;BME280;37387;42.672;23.334;2023-05-23T04:05:35;942.9;;;12.4;100.0
40013;BME280;37387;42.672;23.334;2023-05-23T04:06:36;942.9;;;12.3;100.0
40013;BME280;37387;42.672;23.334;2023-05-23T04:07:36;942.9;;;12.4;100.0
40013;BME280;37387;42.672;23.334;2023-05-23T04:09:35;942.9;;;12.5;100.0
40013;BME280;37387;42.672;23.334;2023-05-23T04:11:36;942.8;;;12.7;100.0
40013;BME280;37387;42.672;23.334;2023-05-23T04:12:36;942.9;;;12.6;100.0
40013;BME280;37387;42.672;23.334;2023-05-23T04:15:35;942.8;;;12.5;100.0
40013;BME280;37387;42.672;23.334;2023-05-23T04:16:36;942.8;;;12.4;100.0
40013;BME280;37387;42.672;23.334;2023-05-23T04:18:36;942.8;;;12.5;100.0
40013;BME280;37387;42.672;23.334;2023-05-23T04:19:35;942.8;;;12.2;100.0
40013;BME280;37387;42.672;23.334;2023-05-23T04:20:35;942.9;;;12.4;100.0
40013;BME280;37387;42.672;23.334;2023-05-23T04:21:35;942.9;;;12.5;100.0
40013;BME280;37387;42.672;23.334;2023-05-23T04:22:35;942.9;;;12.6;100.0
40013;BME280;37387;42.672;23.334;2023-05-23T04:24:36;942.9;;;12.5;100.0
40013;BME280;37387;42.672;23.334;2023-05-23T04:25:35;942.9;;;12.4;100.0
40013;BME280;37387;42.672;23.334;2023-05-23T04:27:35;942.8;;;12.6;100.0
40013;BME280;37387;42.672;23.334;2023-05-23T04:28:35;942.9;;;12.7;100.0
40013;BME280;37387;42.672;23.334;2023-05-23T04:29:35;942.9;;;12.6;100.0
40013;BME280;37387;42.672;23.334;2023-05-23T04:31:35;942.9;;;12.7;100.0
40013;BME280;37387;42.672;23.334;2023-05-23T04:32:36;942.9;;;12.6;100.0
40013;BME280;37387;42.672;23.334;2023-05-23T04:33:35;942.9;;;12.7;100.0
40013;BME280;37387;42.672;23.334;2023-05-23T04:34:36;942.9;;;12.6;100.0
40013;BME280;37387;42.672;23.334;2023-05-23T04:36:35;943.0;;;12.7;100.0
40013;BME280;37387;42.672;23.334;2023-05-23T04:37:35;943.0;;;12.8;100.0
40013;BME280;37387;42.672;23.334;2023-05-23T04:38:36;943.0;;;12.9;100.0
40013;BME280;37387;42.672;23.334;2023-05-23T04:40:35;943.0;;;13.0;100.0
40013;BME280;37387;42.672;23.334;2023-05-23T04:45:35;943.0;;;12.9;100.0
40013;BME280;37387;42.672;23.334;2023-05-23T04:46:35;943.0;;;13.0;100.0
40013;BME280;37387;42.672;23.334;2023-05-23T04:47:35;943.0;;;12.9;100.0
40013;BME280;37387;42.672;23.334;2023-05-23T04:49:36;943.1;;;12.8;100.0
40013;BME280;37387;42.672;23.334;2023-05-23T04:50:35;943.1;;;12.7;100.0
40013;BME280;37387;42.672;23.334;2023-05-23T04:51:35;943.0;;;12.6;100.0
40013;BME280;37387;42.672;23.334;2023-05-23T04:52:35;943.1;;;12.5;100.0
40013;BME280;37387;42.672;23.334;2023-05-23T04:53:35;943.1;;;12.6;100.0
40013;BME280;37387;42.672;23.334;2023-05-23T04:56:35;943.1;;;12.5;100.0
40013;BME280;37387;42.672;23.334;2023-05-23T05:00:35;943.1;;;12.6;100.0
40013;BME280;37387;42.672;23.334;2023-05-23T05:03:36;943.1;;;12.7;100.0
40013;BME280;37387;42.672;23.334;2023-05-23T05:06:35;943.1;;;12.6;100.0
40013;BME280;37387;42.672;23.334;2023-05-23T05:09:35;943.2;;;12.7;100.0
40013;BME280;37387;42.672;23.334;2023-05-23T05:10:37;943.2;;;12.6;100.0
40013;BME280;37387;42.672;23.334;2023-05-23T05:11:36;943.2;;;12.5;100.0
40013;BME280;37387;42.672;23.334;2023-05-23T05:13:35;943.2;;;12.6;100.0
40013;BME280;37387;42.672;23.334;2023-05-23T05:15:36;943.3;;;12.5;100.0
40013;BME280;37387;42.672;23.334;2023-05-23T05:16:36;943.3;;;12.6;100.0
40013;BME280;37387;42.672;23.334;2023-05-23T05:19:35;943.2;;;12.7;100.0
40013;BME280;37387;42.672;23.334;2023-05-23T05:20:35;943.2;;;12.5;100.0
40013;BME280;37387;42.672;23.334;2023-05-23T05:22:36;943.3;;;12.6;100.0
40013;BME280;37387;42.672;23.334;2023-05-23T05:23:36;943.3;;;12.7;100.0
40013;BME280;37387;42.672;23.334;2023-05-23T05:25:35;943.3;;;12.8;100.0
40013;BME280;37387;42.672;23.334;2023-05-23T05:26:35;943.3;;;12.9;100.0
40013;BME280;37387;42.672;23.334;2023-05-23T05:28:36;943.3;;;12.6;100.0
40013;BME280;37387;42.672;23.334;2023-05-23T05:30:36;943.3;;;12.8;100.0
40013;BME280;37387;42.672;23.334;2023-05-23T05:31:35;943.3;;;12.9;100.0
40013;BME280;37387;42.672;23.334;2023-05-23T05:33:35;943.3;;;13.0;100.0
40013;BME280;37387;42.672;23.334;2023-05-23T05:34:36;943.3;;;13.2;100.0
40013;BME280;37387;42.672;23.334;2023-05-23T05:35:36;943.3;;;13.4;100.0
40013;BME280;37387;42.672;23.334;2023-05-23T05:36:35;943.3;;;13.2;100.0
40013;BME280;37387;42.672;23.334;2023-05-23T05:37:35;943.3;;;13.3;100.0
40013;BME280;37387;42.672;23.334;2023-05-23T05:38:36;943.3;;;13.1;100.0
40013;BME280;37387;42.672;23.334;2023-05-23T05:39:36;943.4;;;13.2;100.0
40013;BME280;37387;42.672;23.334;2023-05-23T05:40:36;943.4;;;13.4;100.0
40013;BME280;37387;42.672;23.334;2023-05-23T05:41:35;943.4;;;13.5;100.0
40013;BME280;37387;42.672;23.334;2023-05-23T05:42:36;943.4;;;13.4;100.0
40013;BME280;37387;42.672;23.334;2023-05-23T05:47:35;943.4;;;13.3;100.0
40013;BME280;37387;42.672;23.334;2023-05-23T05:48:35;943.4;;;13.5;100.0
40013;BME280;37387;42.672;23.334;2023-05-23T05:49:36;943.4;;;13.6;100.0
40013;BME280;37387;42.672;23.334;2023-05-23T05:50:36;943.4;;;13.2;100.0
40013;BME280;37387;42.672;23.334;2023-05-23T05:51:36;943.4;;;13.6;100.0
40013;BME280;37387;42.672;23.334;2023-05-23T05:52:36;943.4;;;13.5;100.0
40013;BME280;37387;42.672;23.334;2023-05-23T05:53:35;943.4;;;12.9;100.0
40013;BME280;37387;42.672;23.334;2023-05-23T05:55:35;943.4;;;13.1;100.0
40013;BME280;37387;42.672;23.334;2023-05-23T05:56:35;943.4;;;13.2;100.0
40013;BME280;37387;42.672;23.334;2023-05-23T05:57:36;943.4;;;13.4;100.0
40013;BME280;37387;42.672;23.334;2023-05-23T05:58:37;943.4;;;13.6;100.0
40013;BME280;37387;42.672;23.334;2023-05-23T05:59:35;943.5;;;13.8;100.0
40013;BME280;37387;42.672;23.334;2023-05-23T06:00:36;943.5;;;14.0;100.0
40013;BME280;37387;42.672;23.334;2023-05-23T06:01:36;943.4;;;14.1;100.0
40013;BME280;37387;42.672;23.334;2023-05-23T06:02:36;943.4;;;14.2;100.0
40013;BME280;37387;42.672;23.334;2023-05-23T06:03:35;943.4;;;14.3;100.0
40013;BME280;37387;42.672;23.334;2023-05-23T06:04:36;943.4;;;14.5;100.0
40013;BME280;37387;42.672;23.334;2023-05-23T06:05:36;943.5;;;14.3;100.0
40013;BME280;37387;42.672;23.334;2023-05-23T06:06:35;943.5;;;14.4;100.0
40013;BME280;37387;42.672;23.334;2023-05-23T06:07:36;943.5;;;14.8;100.0
40013;BME280;37387;42.672;23.334;2023-05-23T06:08:36;943.5;;;14.2;100.0
40013;BME280;37387;42.672;23.334;2023-05-23T06:09:35;943.5;;;14.5;100.0
40013;BME280;37387;42.672;23.334;2023-05-23T06:10:36;943.5;;;14.8;100.0
40013;BME280;37387;42.672;23.334;2023-05-23T06:12:35;943.5;;;14.5;100.0
40013;BME280;37387;42.672;23.334;2023-05-23T06:13:35;943.5;;;14.4;100.0
40013;BME280;37387;42.672;23.334;2023-05-23T06:14:35;943.5;;;14.6;100.0
40013;BME280;37387;42.672;23.334;2023-05-23T06:15:36;943.6;;;15.0;100.0
40013;BME280;37387;42.672;23.334;2023-05-23T06:16:36;943.6;;;14.9;100.0
40013;BME280;37387;42.672;23.334;2023-05-23T06:17:36;943.6;;;15.1;100.0
40013;BME280;37387;42.672;23.334;2023-05-23T06:18:35;943.6;;;15.2;100.0
40013;BME280;37387;42.672;23.334;2023-05-23T06:19:36;943.6;;;15.1;100.0
40013;BME280;37387;42.672;23.334;2023-05-23T06:20:35;943.6;;;15.4;100.0
40013;BME280;37387;42.672;23.334;2023-05-23T06:21:35;943.7;;;15.5;100.0
40013;BME280;37387;42.672;23.334;2023-05-23T06:22:36;943.6;;;15.4;100.0
40013;BME280;37387;42.672;23.334;2023-05-23T06:23:36;943.6;;;15.3;100.0
40013;BME280;37387;42.672;23.334;2023-05-23T06:24:35;943.6;;;15.4;100.0
40013;BME280;37387;42.672;23.334;2023-05-23T06:25:35;943.6;;;15.5;100.0
40013;BME280;37387;42.672;23.334;2023-05-23T06:26:35;943.6;;;15.4;100.0
40013;BME280;37387;42.672;23.334;2023-05-23T06:28:36;943.7;;;15.9;100.0
40013;BME280;37387;42.672;23.334;2023-05-23T06:29:35;943.7;;;16.4;100.0
40013;BME280;37387;42.672;23.334;2023-05-23T06:30:35;943.7;;;16.7;100.0
40013;BME280;37387;42.672;23.334;2023-05-23T06:31:36;943.7;;;16.9;100.0
40013;BME280;37387;42.672;23.334;2023-05-23T06:32:36;943.7;;;16.6;100.0
40013;BME280;37387;42.672;23.334;2023-05-23T06:34:35;943.7;;;16.5;100.0
40013;BME280;37387;42.672;23.334;2023-05-23T06:35:35;943.7;;;16.7;100.0
40013;BME280;37387;42.672;23.334;2023-05-23T06:36:36;943.7;;;17.0;100.0
40013;BME280;37387;42.672;23.334;2023-05-23T06:37:36;943.7;;;17.2;100.0
40013;BME280;37387;42.672;23.334;2023-05-23T06:38:36;943.7;;;17.1;100.0
40013;BME280;37387;42.672;23.334;2023-05-23T06:39:36;943.7;;;17.6;100.0
40013;BME280;37387;42.672;23.334;2023-05-23T06:40:36;943.7;;;17.8;100.0
40013;BME280;37387;42.672;23.334;2023-05-23T06:41:37;943.7;;;17.9;100.0
40013;BME280;37387;42.672;23.334;2023-05-23T06:42:35;943.7;;;18.2;100.0
40013;BME280;37387;42.672;23.334;2023-05-23T06:44:36;943.8;;;18.6;100.0
40013;BME280;37387;42.672;23.334;2023-05-23T06:45:36;943.8;;;19.1;100.0
40013;BME280;37387;42.672;23.334;2023-05-23T06:46:36;943.8;;;19.3;100.0
40013;BME280;37387;42.672;23.334;2023-05-23T06:47:36;943.8;;;18.4;100.0
40013;BME280;37387;42.672;23.334;2023-05-23T06:48:36;943.7;;;18.0;100.0
40013;BME280;37387;42.672;23.334;2023-05-23T06:49:36;943.8;;;18.7;100.0
40013;BME280;37387;42.672;23.334;2023-05-23T06:50:36;943.7;;;19.2;100.0
40013;BME280;37387;42.672;23.334;2023-05-23T06:51:36;943.7;;;19.1;100.0
40013;BME280;37387;42.672;23.334;2023-05-23T06:52:36;943.8;;;18.7;100.0
40013;BME280;37387;42.672;23.334;2023-05-23T06:53:36;943.7;;;19.2;100.0
40013;BME280;37387;42.672;23.334;2023-05-23T06:54:36;943.8;;;19.1;100.0
40013;BME280;37387;42.672;23.334;2023-05-23T06:55:36;943.7;;;19.2;100.0
40013;BME280;37387;42.672;23.334;2023-05-23T06:56:36;943.7;;;20.6;100.0
40013;BME280;37387;42.672;23.334;2023-05-23T06:57:36;943.8;;;22.1;75.9
40013;BME280;37387;42.672;23.334;2023-05-23T06:58:36;943.8;;;23.2;75.9
40013;BME280;37387;42.672;23.334;2023-05-23T06:59:36;943.8;;;22.9;67.1
40013;BME280;37387;42.672;23.334;2023-05-23T07:00:36;943.8;;;23.3;66.5
40013;BME280;37387;42.672;23.334;2023-05-23T07:01:36;943.8;;;24.0;65.0
40013;BME280;37387;42.672;23.334;2023-05-23T07:02:35;943.8;;;24.4;63.0
40013;BME280;37387;42.672;23.334;2023-05-23T07:03:36;943.8;;;24.8;61.4
40013;BME280;37387;42.672;23.334;2023-05-23T07:04:35;943.8;;;24.9;57.5
40013;BME280;37387;42.672;23.334;2023-05-23T07:05:36;943.8;;;25.3;56.1
40013;BME280;37387;42.672;23.334;2023-05-23T07:06:35;943.8;;;21.5;56.1
40013;BME280;37387;42.672;23.334;2023-05-23T07:07:36;943.7;;;20.5;77.9
40013;BME280;37387;42.672;23.334;2023-05-23T07:08:36;943.7;;;21.2;77.9
40013;BME280;37387;42.672;23.334;2023-05-23T07:09:36;943.7;;;20.6;73.9
40013;BME280;37387;42.672;23.334;2023-05-23T07:10:36;943.7;;;21.5;76.6
40013;BME280;37387;42.672;23.334;2023-05-23T07:11:36;943.7;;;23.0;75.6
40013;BME280;37387;42.672;23.334;2023-05-23T07:12:36;943.7;;;24.0;62.4
40013;BME280;37387;42.672;23.334;2023-05-23T07:14:36;943.7;;;23.1;65.0
40013;BME280;37387;42.672;23.334;2023-05-23T07:15:36;943.7;;;22.1;65.0
40013;BME280;37387;42.672;23.334;2023-05-23T07:16:36;943.6;;;23.0;67.7
40013;BME280;37387;42.672;23.334;2023-05-23T07:17:36;943.7;;;23.3;64.0
40013;BME280;37387;42.672;23.334;2023-05-23T07:18:36;943.7;;;22.5;64.0
40013;BME280;37387;42.672;23.334;2023-05-23T07:19:36;943.6;;;23.7;66.8
40013;BME280;37387;42.672;23.334;2023-05-23T07:20:36;943.7;;;24.5;63.1
40013;BME280;37387;42.672;23.334;2023-05-23T07:21:36;943.7;;;24.7;60.5
40013;BME280;37387;42.672;23.334;2023-05-23T07:22:36;943.6;;;25.4;57.0
40013;BME280;37387;42.672;23.334;2023-05-23T07:23:39;943.6;;;26.1;54.7
40013;BME280;37387;42.672;23.334;2023-05-23T07:25:36;943.6;;;25.6;54.3
40013;BME280;37387;42.672;23.334;2023-05-23T07:26:36;943.5;;;25.2;54.9
40013;BME280;37387;42.672;23.334;2023-05-23T07:27:36;943.5;;;25.5;57.0
40013;BME280;37387;42.672;23.334;2023-05-23T07:28:36;943.5;;;25.7;55.3
40013;BME280;37387;42.672;23.334;2023-05-23T07:29:36;943.5;;;25.3;55.3
40013;BME280;37387;42.672;23.334;2023-05-23T07:30:36;943.5;;;25.6;55.2
40013;BME280;37387;42.672;23.334;2023-05-23T07:31:36;943.5;;;25.9;55.2
40013;BME280;37387;42.672;23.334;2023-05-23T07:32:36;943.5;;;25.8;55.0
40013;BME280;37387;42.672;23.334;2023-05-23T07:33:36;943.4;;;25.3;54.2
40013;BME280;37387;42.672;23.334;2023-05-23T07:34:36;943.4;;;25.6;55.2
40013;BME280;37387;42.672;23.334;2023-05-23T07:36:36;943.5;;;26.0;56.5
40013;BME280;37387;42.672;23.334;2023-05-23T07:37:36;943.5;;;26.2;56.8
40013;BME280;37387;42.672;23.334;2023-05-23T07:38:36;943.5;;;25.6;54.8
40013;BME280;37387;42.672;23.334;2023-05-23T07:39:36;943.4;;;25.4;56.1
40013;BME280;37387;42.672;23.334;2023-05-23T07:40:36;943.4;;;25.0;56.1
40013;BME280;37387;42.672;23.334;2023-05-23T07:41:36;943.5;;;24.9;56.1
40013;BME280;37387;42.672;23.334;2023-05-23T07:42:36;943.4;;;24.7;57.2
40013;BME280;37387;42.672;23.334;2023-05-23T07:43:36;943.4;;;25.0;57.2
40013;BME280;37387;42.672;23.334;2023-05-23T07:44:36;943.4;;;22.8;57.2
40013;BME280;37387;42.672;23.334;2023-05-23T07:45:36;943.3;;;21.9;69.5
40013;BME280;37387;42.672;23.334;2023-05-23T07:46:36;943.4;;;23.0;69.5
40013;BME280;37387;42.672;23.334;2023-05-23T07:47:36;943.4;;;23.2;63.6
40013;BME280;37387;42.672;23.334;2023-05-23T07:48:36;943.4;;;23.3;64.1
40013;BME280;37387;42.672;23.334;2023-05-23T07:49:36;943.4;;;23.4;63.4
40013;BME280;37387;42.672;23.334;2023-05-23T07:50:36;943.4;;;23.9;63.4
40013;BME280;37387;42.672;23.334;2023-05-23T07:51:36;943.4;;;23.8;61.0
40013;BME280;37387;42.672;23.334;2023-05-23T07:52:36;943.4;;;24.5;59.1
40013;BME280;37387;42.672;23.334;2023-05-23T07:54:36;943.4;;;24.9;57.9
40013;BME280;37387;42.672;23.334;2023-05-23T07:55:36;943.4;;;25.4;57.9
40013;BME280;37387;42.672;23.334;2023-05-23T07:56:36;943.4;;;25.7;56.7
40013;BME280;37387;42.672;23.334;2023-05-23T07:57:36;943.4;;;25.8;54.0
40013;BME280;37387;42.672;23.334;2023-05-23T07:58:36;943.4;;;25.9;53.5
40013;BME280;37387;42.672;23.334;2023-05-23T07:59:36;943.4;;;24.6;54.3
40013;BME280;37387;42.672;23.334;2023-05-23T08:00:36;943.4;;;24.7;58.1
40013;BME280;37387;42.672;23.334;2023-05-23T08:01:36;943.4;;;25.4;59.9
40013;BME280;37387;42.672;23.334;2023-05-23T08:02:36;943.4;;;25.6;57.4
40013;BME280;37387;42.672;23.334;2023-05-23T08:03:36;943.4;;;25.0;55.9
40013;BME280;37387;42.672;23.334;2023-05-23T08:04:36;943.4;;;25.1;56.1
40013;BME280;37387;42.672;23.334;2023-05-23T08:05:36;943.3;;;23.6;57.0
40013;BME280;37387;42.672;23.334;2023-05-23T08:06:36;943.3;;;22.2;60.3
40013;BME280;37387;42.672;23.334;2023-05-23T08:07:36;943.2;;;21.6;71.3
40013;BME280;37387;42.672;23.334;2023-05-23T08:08:36;943.2;;;22.8;71.3
40013;BME280;37387;42.672;23.334;2023-05-23T08:09:36;943.3;;;23.7;66.7
40013;BME280;37387;42.672;23.334;2023-05-23T08:10:36;943.3;;;24.0;64.4
40013;BME280;37387;42.672;23.334;2023-05-23T08:11:36;943.3;;;24.2;61.1
40013;BME280;37387;42.672;23.334;2023-05-23T08:12:36;943.3;;;24.4;60.0
40013;BME280;37387;42.672;23.334;2023-05-23T08:14:36;943.3;;;24.2;59.0
40013;BME280;37387;42.672;23.334;2023-05-23T08:15:36;943.3;;;23.8;61.0
40013;BME280;37387;42.672;23.334;2023-05-23T08:16:36;943.3;;;23.7;62.7
40013;BME280;37387;42.672;23.334;2023-05-23T08:17:36;943.3;;;24.1;59.8
40013;BME280;37387;42.672;23.334;2023-05-23T08:18:36;943.2;;;23.8;60.7
40013;BME280;37387;42.672;23.334;2023-05-23T08:19:36;943.3;;;24.5;59.0
40013;BME280;37387;42.672;23.334;2023-05-23T08:20:36;943.3;;;23.9;59.0
40013;BME280;37387;42.672;23.334;2023-05-23T08:22:36;943.2;;;24.3;61.5
40013;BME280;37387;42.672;23.334;2023-05-23T08:23:36;943.3;;;24.9;60.1
40013;BME280;37387;42.672;23.334;2023-05-23T08:24:36;943.3;;;25.5;58.7
40013;BME280;37387;42.672;23.334;2023-05-23T08:25:36;943.3;;;25.8;57.3
40013;BME280;37387;42.672;23.334;2023-05-23T08:26:36;943.3;;;26.2;55.1
40013;BME280;37387;42.672;23.334;2023-05-23T08:27:36;943.3;;;26.3;52.5
40013;BME280;37387;42.672;23.334;2023-05-23T08:28:36;943.3;;;26.7;53.0
40013;BME280;37387;42.672;23.334;2023-05-23T08:29:36;943.3;;;27.4;51.9
40013;BME280;37387;42.672;23.334;2023-05-23T08:30:36;943.3;;;27.0;50.1
40013;BME280;37387;42.672;23.334;2023-05-23T08:31:36;943.3;;;25.9;54.9
40013;BME280;37387;42.672;23.334;2023-05-23T08:32:36;943.3;;;26.1;54.9
40013;BME280;37387;42.672;23.334;2023-05-23T08:33:36;943.3;;;25.5;53.1
40013;BME280;37387;42.672;23.334;2023-05-23T08:34:36;943.3;;;25.8;56.3
40013;BME280;37387;42.672;23.334;2023-05-23T08:38:36;943.2;;;26.0;53.2
40013;BME280;37387;42.672;23.334;2023-05-23T08:39:36;943.2;;;25.9;53.6
40013;BME280;37387;42.672;23.334;2023-05-23T08:40:36;943.2;;;25.6;53.6
40013;BME280;37387;42.672;23.334;2023-05-23T08:42:36;943.2;;;25.9;53.4
40013;BME280;37387;42.672;23.334;2023-05-23T08:43:36;943.2;;;26.3;53.4
40013;BME280;37387;42.672;23.334;2023-05-23T08:44:36;943.2;;;25.8;52.5
40013;BME280;37387;42.672;23.334;2023-05-23T08:45:36;943.2;;;25.9;54.4
40013;BME280;37387;42.672;23.334;2023-05-23T08:47:36;943.1;;;25.6;50.0
40013;BME280;37387;42.672;23.334;2023-05-23T08:48:36;943.1;;;25.4;51.3
40013;BME280;37387;42.672;23.334;2023-05-23T08:49:36;943.2;;;25.6;51.1
40013;BME280;37387;42.672;23.334;2023-05-23T08:50:36;943.2;;;25.1;51.1
40013;BME280;37387;42.672;23.334;2023-05-23T08:51:36;943.2;;;24.5;54.1
40013;BME280;37387;42.672;23.334;2023-05-23T08:52:36;943.2;;;24.4;56.3
40013;BME280;37387;42.672;23.334;2023-05-23T08:53:36;943.1;;;23.7;56.0
40013;BME280;37387;42.672;23.334;2023-05-23T08:54:36;943.2;;;24.9;57.6
40013;BME280;37387;42.672;23.334;2023-05-23T08:55:36;943.1;;;25.5;57.6
40013;BME280;37387;42.672;23.334;2023-05-23T08:56:36;943.1;;;25.2;55.8
40013;BME280;37387;42.672;23.334;2023-05-23T08:57:36;943.2;;;25.0;56.7
40013;BME280;37387;42.672;23.334;2023-05-23T08:58:36;943.2;;;24.9;59.0
40013;BME280;37387;42.672;23.334;2023-05-23T08:59:36;943.1;;;25.5;54.6